Time;durP1;ratioP1;P1;durP2;ratioP2;P2;SDS_P1;SDS_P2;PMS_P1;PMS_P2;Temp;Humidity;BMP_temperature;BMP_pressure;BME280_temperature;BME280_humidity;BME280_pressure;Samples;Min_cycle;Max_cycle;Signal;HPM_P1;HPM_P2
2023/01/12 00:01:25;;;;;;;3.70;1.90;;;8.70;1.00;;;;;;5046617;28;20449;-55
2023/01/12 00:03:52;;;;;;;5.93;1.70;;;8.90;1.00;;;;;;5044723;28;20465;-53
2023/01/12 00:06:20;;;;;;;4.13;1.80;;;8.90;1.00;;;;;;5049496;28;20631;-55
2023/01/12 00:08:48;;;;;;;4.77;3.93;;;8.70;1.00;;;;;;5047468;28;20446;-53
2023/01/12 00:11:14;;;;;;;3.67;1.67;;;8.60;1.00;;;;;;5047984;28;20444;-54
2023/01/12 00:13:40;;;;;;;4.43;1.53;;;8.70;1.00;;;;;;5059062;28;20456;-55
2023/01/12 00:18:50;;;;;;;3.03;1.30;;;8.70;1.00;;;;;;5036666;28;20205;-53
2023/01/12 00:21:16;;;;;;;4.07;1.70;;;8.60;1.00;;;;;;5048914;28;20452;-54
2023/01/12 00:23:42;;;;;;;9.47;2.50;;;8.60;1.00;;;;;;5044717;28;20214;-54
2023/01/12 00:26:08;;;;;;;2.40;1.43;;;8.50;1.00;;;;;;5048786;28;20535;-52
2023/01/12 00:28:35;;;;;;;3.87;1.60;;;8.50;1.00;;;;;;5047436;28;20551;-53
2023/01/12 00:31:02;;;;;;;6.00;2.23;;;8.50;1.00;;;;;;5046161;28;20466;-56
2023/01/12 00:33:28;;;;;;;4.10;1.80;;;8.50;1.00;;;;;;5045830;28;20933;-53
2023/01/12 00:35:53;;;;;;;5.60;1.90;;;8.50;1.00;;;;;;5047915;28;20454;-53
2023/01/12 00:38:19;;;;;;;6.50;1.40;;;8.40;1.00;;;;;;5048073;28;20198;-56
2023/01/12 00:40:45;;;;;;;5.47;1.87;;;8.40;1.00;;;;;;5049383;28;20225;-55
2023/01/12 00:45:54;;;;;;;7.47;2.30;;;8.30;1.00;;;;;;5047442;28;20279;-53
2023/01/12 00:48:20;;;;;;;5.30;1.77;;;8.30;1.00;;;;;;5043347;28;20901;-52
2023/01/12 00:50:45;;;;;;;4.90;2.23;;;8.30;1.00;;;;;;5043970;28;20242;-53
2023/01/12 00:53:12;;;;;;;7.63;2.07;;;8.40;1.00;;;;;;5048798;28;20553;-53
2023/01/12 00:55:37;;;;;;;5.97;2.00;;;8.60;1.00;;;;;;5047901;28;20563;-55
2023/01/12 00:58:03;;;;;;;6.90;1.40;;;8.80;1.00;;;;;;5045778;28;20458;-53
2023/01/12 01:00:29;;;;;;;6.43;1.73;;;8.70;1.00;;;;;;5042811;28;20591;-53
2023/01/12 01:02:55;;;;;;;3.50;1.27;;;8.80;1.00;;;;;;5048764;28;20465;-52
2023/01/12 01:05:20;;;;;;;5.13;1.50;;;8.90;1.00;;;;;;5046534;28;20186;-54
2023/01/12 01:07:46;;;;;;;5.33;1.20;;;8.90;1.00;;;;;;5041741;28;20240;-57
2023/01/12 01:10:14;;;;;;;3.40;1.20;;;8.90;1.00;;;;;;5046955;28;20190;-53
2023/01/12 01:12:40;;;;;;;3.60;2.00;;;8.80;1.00;;;;;;5045115;28;20566;-55
2023/01/12 01:15:07;;;;;;;4.07;1.40;;;8.70;1.00;;;;;;5058341;28;20459;-55
2023/01/12 01:17:32;;;;;;;6.10;1.60;;;8.60;1.00;;;;;;5046044;28;20448;-53
2023/01/12 01:19:58;;;;;;;8.20;2.20;;;8.60;1.00;;;;;;5047426;28;20444;-53
2023/01/12 01:22:23;;;;;;;5.03;1.17;;;8.70;1.00;;;;;;5043325;28;20217;-52
2023/01/12 01:24:49;;;;;;;3.63;1.57;;;8.60;1.00;;;;;;5047597;28;20651;-54
2023/01/12 01:27:15;;;;;;;3.40;1.47;;;8.50;1.00;;;;;;5047578;28;20289;-54
2023/01/12 01:29:40;;;;;;;2.13;1.00;;;8.50;1.00;;;;;;5045945;28;20193;-57
2023/01/12 01:32:06;;;;;;;3.93;1.87;;;8.50;1.00;;;;;;5046575;28;20244;-57
2023/01/12 01:34:32;;;;;;;5.77;1.80;;;8.40;1.00;;;;;;5044892;28;20626;-54
2023/01/12 01:36:59;;;;;;;4.47;1.47;;;8.50;1.00;;;;;;5046549;28;20784;-55
2023/01/12 01:39:25;;;;;;;3.30;1.43;;;8.50;1.00;;;;;;5047757;28;20905;-53
2023/01/12 01:41:50;;;;;;;3.40;1.00;;;8.40;1.00;;;;;;5049543;28;20452;-54
2023/01/12 01:44:28;;;;;;;5.60;2.13;;;8.50;1.00;;;;;;5047913;28;20221;-55
2023/01/12 01:47:00;;;;;;;3.87;1.67;;;8.70;1.00;;;;;;5045202;28;20298;-55
2023/01/12 01:49:43;;;;;;;3.53;1.10;;;8.60;1.00;;;;;;5044152;28;20476;-57
2023/01/12 01:52:22;;;;;;;2.23;1.13;;;8.80;1.00;;;;;;5046775;28;20449;-56
2023/01/12 01:54:57;;;;;;;6.33;2.00;;;8.90;1.00;;;;;;5050273;28;20440;-55
2023/01/12 01:57:49;;;;;;;4.40;1.50;;;9.10;1.00;;;;;;5052121;28;20502;-55
2023/01/12 02:00:15;;;;;;;3.33;1.57;;;9.20;1.00;;;;;;5050840;28;20494;-56
2023/01/12 02:02:42;;;;;;;6.20;1.50;;;9.30;1.00;;;;;;5050922;28;20466;-54
2023/01/12 02:05:10;;;;;;;5.43;1.40;;;9.40;1.00;;;;;;5051746;28;20447;-57
2023/01/12 02:07:36;;;;;;;3.57;1.30;;;9.40;1.00;;;;;;5048435;28;20431;-55
2023/01/12 02:10:02;;;;;;;1.70;0.90;;;9.30;1.00;;;;;;5050025;28;20440;-54
2023/01/12 02:18:24;;;;;;;4.87;1.10;;;9.30;1.00;;;;;;5047680;28;20781;-56
2023/01/12 02:21:25;;;;;;;5.73;1.50;;;9.20;1.00;;;;;;5046228;28;20475;-55
2023/01/12 02:24:28;;;;;;;2.27;1.30;;;9.30;1.00;;;;;;5038247;28;20482;-54
2023/01/12 02:26:59;;;;;;;4.13;1.50;;;9.30;1.00;;;;;;5050909;28;20489;-56
2023/01/12 02:30:02;;;;;;;4.13;1.27;;;9.40;1.00;;;;;;5046805;28;20548;-54
2023/01/12 02:32:43;;;;;;;2.90;1.00;;;9.40;1.00;;;;;;5051083;28;20426;-53
2023/01/12 02:35:37;;;;;;;1.17;1.07;;;9.40;1.00;;;;;;5050183;28;20451;-53
2023/01/12 02:38:22;;;;;;;2.43;1.03;;;9.30;1.00;;;;;;5046536;28;20785;-54
2023/01/12 02:41:01;;;;;;;3.60;1.47;;;9.30;1.00;;;;;;5049297;28;20456;-55
2023/01/12 02:43:30;;;;;;;3.23;1.03;;;9.20;1.00;;;;;;5050106;28;20864;-54
2023/01/12 02:46:10;;;;;;;5.47;1.43;;;9.00;1.00;;;;;;5049243;28;20451;-53
2023/01/12 02:48:36;;;;;;;2.20;1.07;;;8.90;1.00;;;;;;5049060;28;20449;-56
2023/01/12 02:51:13;;;;;;;5.50;2.03;;;9.00;1.00;;;;;;5049603;28;20514;-55
2023/01/12 02:53:51;;;;;;;4.67;1.20;;;9.10;1.00;;;;;;5050348;28;20301;-53
2023/01/12 02:56:28;;;;;;;8.43;1.40;;;8.90;1.00;;;;;;5049242;28;20441;-56
2023/01/12 02:58:58;;;;;;;4.87;0.93;;;8.80;1.00;;;;;;5048859;28;20440;-54
2023/01/12 03:01:26;;;;;;;2.20;1.47;;;8.70;1.00;;;;;;5049765;28;20451;-52
2023/01/12 03:03:54;;;;;;;5.20;1.80;;;8.80;1.00;;;;;;5047096;28;20481;-52
2023/01/12 03:06:20;;;;;;;3.80;1.27;;;8.90;1.00;;;;;;5042086;28;20427;-54
2023/01/12 03:08:48;;;;;;;5.80;1.90;;;8.80;1.00;;;;;;5048620;28;20810;-52
2023/01/12 03:11:21;;;;;;;10.13;1.60;;;8.80;1.00;;;;;;5051661;28;20273;-54
2023/01/12 03:13:56;;;;;;;2.00;0.80;;;9.00;1.00;;;;;;5047784;28;20483;-56
2023/01/12 03:16:32;;;;;;;3.13;1.20;;;9.00;1.00;;;;;;5048618;28;20812;-55
2023/01/12 03:19:26;;;;;;;2.33;1.33;;;9.00;1.00;;;;;;5045720;28;20456;-58
2023/01/12 03:21:56;;;;;;;5.27;1.50;;;8.90;1.00;;;;;;5050136;28;20533;-53
2023/01/12 03:24:28;;;;;;;1.20;0.87;;;9.00;1.00;;;;;;5048163;28;20472;-54
2023/01/12 03:27:00;;;;;;;3.30;1.40;;;9.10;1.00;;;;;;5048561;28;20444;-55
2023/01/12 03:29:40;;;;;;;5.40;1.50;;;9.00;1.00;;;;;;5049337;28;20795;-55
2023/01/12 03:32:06;;;;;;;6.63;1.67;;;9.00;1.00;;;;;;5049285;28;20444;-55
2023/01/12 03:34:33;;;;;;;4.60;1.27;;;8.90;1.00;;;;;;5050623;28;20948;-52
2023/01/12 03:37:04;;;;;;;3.93;1.40;;;9.00;1.00;;;;;;5049002;28;20503;-55
2023/01/12 03:39:57;;;;;;;3.70;1.40;;;8.90;1.00;;;;;;5050770;28;20454;-55
2023/01/12 03:42:40;;;;;;;5.30;1.30;;;9.10;1.00;;;;;;5049279;28;20466;-55
2023/01/12 03:45:45;;;;;;;5.03;1.40;;;9.10;1.00;;;;;;5048640;28;20476;-55
2023/01/12 03:48:28;;;;;;;5.17;1.63;;;9.00;1.00;;;;;;5046328;28;20454;-56
2023/01/12 03:51:11;;;;;;;1.93;1.27;;;9.00;1.00;;;;;;5047511;28;20513;-52
2023/01/12 03:53:38;;;;;;;5.37;1.40;;;9.00;1.00;;;;;;5048772;28;20479;-55
2023/01/12 03:56:07;;;;;;;2.30;1.20;;;9.00;1.00;;;;;;5048372;28;20455;-54
2023/01/12 03:58:34;;;;;;;4.53;1.80;;;9.00;1.00;;;;;;5050243;28;21000;-54
2023/01/12 04:01:01;;;;;;;5.87;1.43;;;8.90;1.00;;;;;;5047270;28;20456;-55
2023/01/12 04:03:27;;;;;;;4.97;1.00;;;8.90;1.00;;;;;;5050015;28;20480;-55
2023/01/12 04:05:52;;;;;;;3.80;1.20;;;9.00;1.00;;;;;;5044008;28;20453;-56
2023/01/12 04:08:18;;;;;;;4.83;1.00;;;8.90;1.00;;;;;;5047865;28;20221;-56
2023/01/12 04:10:44;;;;;;;3.30;1.17;;;9.10;1.00;;;;;;5049118;28;20187;-53
2023/01/12 04:13:10;;;;;;;2.70;0.90;;;9.20;1.00;;;;;;5050478;28;20202;-52
2023/01/12 04:15:37;;;;;;;2.03;0.80;;;9.20;1.00;;;;;;5044537;28;20214;-54
2023/01/12 04:18:04;;;;;;;5.23;1.40;;;9.10;1.00;;;;;;5048583;28;21143;-52
2023/01/12 04:20:29;;;;;;;2.53;1.33;;;9.10;1.00;;;;;;5046530;28;20914;-55
2023/01/12 04:22:55;;;;;;;3.30;1.00;;;9.00;1.00;;;;;;5043369;28;20482;-54
2023/01/12 04:25:22;;;;;;;2.37;1.07;;;9.00;1.00;;;;;;5047708;28;20262;-56
2023/01/12 04:27:54;;;;;;;2.73;1.33;;;8.90;1.00;;;;;;5049689;28;20607;-52
2023/01/12 04:30:23;;;;;;;5.57;1.70;;;8.80;1.00;;;;;;5048549;28;20449;-55
2023/01/12 04:32:50;;;;;;;4.53;1.33;;;8.80;1.00;;;;;;5046856;28;21181;-56
2023/01/12 04:35:16;;;;;;;4.50;1.10;;;8.90;1.00;;;;;;5047759;28;20531;-51
2023/01/12 04:37:42;;;;;;;3.33;1.77;;;9.00;1.00;;;;;;5047960;28;20456;-57
2023/01/12 04:40:10;;;;;;;2.87;1.33;;;8.90;1.00;;;;;;5048881;28;20450;-55
2023/01/12 04:43:03;;;;;;;4.73;1.40;;;8.90;1.00;;;;;;5049485;28;20456;-55
2023/01/12 04:45:32;;;;;;;3.67;1.50;;;8.90;1.00;;;;;;5045123;28;20455;-55
2023/01/12 04:48:07;;;;;;;3.53;1.20;;;8.80;1.00;;;;;;5045856;28;20605;-56
2023/01/12 04:50:33;;;;;;;5.40;1.53;;;9.10;1.00;;;;;;5045087;28;20528;-53
2023/01/12 04:53:01;;;;;;;3.63;1.30;;;9.00;1.00;;;;;;5049356;28;20448;-53
2023/01/12 04:55:27;;;;;;;2.50;1.37;;;9.00;1.00;;;;;;5043856;28;20452;-53
2023/01/12 04:57:53;;;;;;;3.70;1.63;;;8.90;1.00;;;;;;5048311;28;20977;-56
2023/01/12 05:00:19;;;;;;;4.20;1.57;;;9.00;1.00;;;;;;5049116;28;20684;-53
2023/01/12 05:02:44;;;;;;;2.63;1.33;;;9.00;1.00;;;;;;5047252;28;20206;-54
2023/01/12 05:05:10;;;;;;;3.00;1.43;;;9.10;1.00;;;;;;5047239;28;20480;-54
2023/01/12 05:07:36;;;;;;;3.53;1.30;;;9.30;1.00;;;;;;5046564;28;20213;-53
2023/01/12 05:12:46;;;;;;;3.63;1.50;;;9.40;1.00;;;;;;5047945;28;20206;-52
2023/01/12 05:15:11;;;;;;;5.23;1.30;;;9.30;1.00;;;;;;5046008;28;20444;-54
2023/01/12 05:17:37;;;;;;;3.83;1.27;;;9.30;1.00;;;;;;5047678;28;20193;-55
2023/01/12 05:20:03;;;;;;;4.97;1.50;;;9.30;1.00;;;;;;5047165;28;20202;-52
2023/01/12 05:22:30;;;;;;;4.60;2.10;;;9.60;1.00;;;;;;5048815;28;20210;-53
2023/01/12 05:24:55;;;;;;;5.20;2.80;;;9.70;1.00;;;;;;5047177;28;20181;-54
2023/01/12 05:27:21;;;;;;;10.73;4.93;;;9.80;1.00;;;;;;5047770;28;20422;-52
2023/01/12 05:29:48;;;;;;;6.60;2.07;;;9.80;1.00;;;;;;5047941;28;20703;-53
2023/01/12 05:32:13;;;;;;;6.40;2.37;;;9.60;1.00;;;;;;5047239;28;20203;-53
2023/01/12 05:34:40;;;;;;;5.87;1.80;;;9.90;1.00;;;;;;5048867;28;20752;-56
2023/01/12 05:37:06;;;;;;;8.83;5.17;;;9.90;1.00;;;;;;5047415;28;20198;-55
2023/01/12 05:39:31;;;;;;;11.10;2.83;;;10.00;1.00;;;;;;5047802;28;20831;-54
2023/01/12 05:44:41;;;;;;;8.27;3.20;;;10.00;1.00;;;;;;5047198;28;20202;-57
2023/01/12 05:47:06;;;;;;;5.40;2.17;;;10.00;1.00;;;;;;5048706;28;20449;-56
2023/01/12 05:49:32;;;;;;;5.23;1.77;;;9.90;1.00;;;;;;5046956;28;20314;-52
2023/01/12 05:51:58;;;;;;;5.13;1.60;;;9.90;1.00;;;;;;5048525;28;20505;-55
2023/01/12 05:54:23;;;;;;;8.90;4.07;;;10.00;1.00;;;;;;5046389;28;20278;-52
2023/01/12 05:56:50;;;;;;;15.57;7.00;;;10.00;1.00;;;;;;5047267;28;20418;-55
2023/01/12 05:59:16;;;;;;;8.80;3.50;;;9.80;1.00;;;;;;5047491;28;20235;-56
2023/01/12 06:01:41;;;;;;;5.00;1.30;;;9.70;1.00;;;;;;5045629;28;20952;-55
2023/01/12 06:04:07;;;;;;;6.17;1.47;;;9.80;1.00;;;;;;5046956;28;20475;-53
2023/01/12 06:06:33;;;;;;;5.20;2.10;;;9.60;1.00;;;;;;5048393;28;20560;-55
2023/01/12 06:08:59;;;;;;;3.57;1.60;;;9.70;1.00;;;;;;5046262;28;20190;-54
2023/01/12 06:14:09;;;;;;;4.33;1.70;;;9.60;1.00;;;;;;5043878;28;20451;-52
2023/01/12 06:16:39;;;;;;;10.53;5.53;;;9.70;1.00;;;;;;5045035;28;20452;-51
2023/01/12 06:19:06;;;;;;;3.70;1.40;;;9.90;1.00;;;;;;5056419;28;20444;-57
2023/01/12 06:21:33;;;;;;;5.10;1.80;;;9.70;1.00;;;;;;5045848;28;20473;-52
2023/01/12 06:23:58;;;;;;;4.20;1.23;;;9.60;1.00;;;;;;5046465;28;20482;-55
2023/01/12 06:26:24;;;;;;;6.73;2.30;;;9.60;1.00;;;;;;5047463;28;21154;-56
2023/01/12 06:28:50;;;;;;;3.00;1.40;;;9.70;1.00;;;;;;5046387;28;20190;-53
2023/01/12 06:31:15;;;;;;;5.90;2.30;;;9.70;1.00;;;;;;5046575;28;20197;-52
2023/01/12 06:33:41;;;;;;;2.53;1.60;;;9.70;1.00;;;;;;5047673;28;20190;-54
2023/01/12 06:36:07;;;;;;;5.33;1.70;;;9.70;1.00;;;;;;5048098;28;20195;-55
2023/01/12 06:38:36;;;;;;;8.07;1.73;;;9.60;1.00;;;;;;5051494;28;20185;-55
2023/01/12 06:43:55;;;;;;;3.80;1.80;;;9.70;1.00;;;;;;5049655;28;20554;-54
2023/01/12 06:46:21;;;;;;;4.40;1.50;;;9.60;1.00;;;;;;5050613;28;20460;-54
2023/01/12 06:48:47;;;;;;;5.80;1.90;;;9.60;1.00;;;;;;5051275;28;20781;-55
2023/01/12 06:51:12;;;;;;;8.30;3.90;;;9.60;1.00;;;;;;5061698;28;20653;-52
2023/01/12 06:53:38;;;;;;;4.50;2.93;;;9.60;1.00;;;;;;5053447;28;20318;-54
2023/01/12 06:56:04;;;;;;;5.53;1.53;;;9.60;1.00;;;;;;5051691;28;20197;-56
2023/01/12 06:58:30;;;;;;;3.73;1.60;;;9.60;1.00;;;;;;5051174;28;20218;-54
2023/01/12 07:01:05;;;;;;;4.97;1.60;;;9.60;1.00;;;;;;5050896;28;20507;-55
2023/01/12 07:03:30;;;;;;;4.40;1.63;;;9.60;1.00;;;;;;5050552;28;20877;-55
2023/01/12 07:06:00;;;;;;;3.20;1.97;;;9.60;1.00;;;;;;5051797;28;20421;-52
2023/01/12 07:08:26;;;;;;;6.00;2.50;;;9.70;1.00;;;;;;5050787;28;20190;-55
2023/01/12 07:10:52;;;;;;;5.33;2.30;;;9.90;1.00;;;;;;5050719;28;20462;-53
2023/01/12 07:13:17;;;;;;;6.97;1.83;;;9.90;1.00;;;;;;5051321;28;20865;-55
2023/01/12 07:15:43;;;;;;;7.80;2.37;;;9.80;1.00;;;;;;5050280;28;20427;-53
2023/01/12 07:18:08;;;;;;;7.20;1.80;;;9.90;1.00;;;;;;5052795;28;20188;-52
2023/01/12 07:20:34;;;;;;;11.67;2.13;;;9.90;1.00;;;;;;5052232;28;20252;-55
2023/01/12 07:23:00;;;;;;;5.37;1.80;;;9.90;1.00;;;;;;5049623;28;20234;-53
2023/01/12 07:25:26;;;;;;;8.90;2.00;;;9.90;1.00;;;;;;5050984;28;20190;-53
2023/01/12 07:27:54;;;;;;;4.00;1.70;;;9.90;1.00;;;;;;5050865;28;20841;-52
2023/01/12 07:30:21;;;;;;;5.07;2.80;;;9.90;1.00;;;;;;5050798;28;20270;-54
2023/01/12 07:32:47;;;;;;;4.77;2.30;;;9.90;1.00;;;;;;5050003;28;20449;-55
2023/01/12 07:35:13;;;;;;;4.20;1.30;;;9.80;1.00;;;;;;5050646;28;20456;-51
2023/01/12 07:37:45;;;;;;;7.10;1.70;;;9.80;1.00;;;;;;5064664;28;20777;-53
2023/01/12 07:40:11;;;;;;;8.73;2.07;;;9.90;1.00;;;;;;5048416;28;20992;-51
2023/01/12 07:42:37;;;;;;;4.97;1.57;;;9.90;1.00;;;;;;5048942;28;20554;-54
2023/01/12 07:45:03;;;;;;;6.53;2.10;;;10.10;1.00;;;;;;5050750;28;20194;-53
2023/01/12 07:47:29;;;;;;;7.00;1.87;;;10.20;1.00;;;;;;5052843;28;20187;-54
2023/01/12 07:49:55;;;;;;;3.80;1.80;;;10.30;1.00;;;;;;5069836;28;20475;-55
2023/01/12 07:52:20;;;;;;;6.43;2.03;;;10.30;1.00;;;;;;5059219;28;20322;-53
2023/01/12 07:54:46;;;;;;;4.50;1.93;;;10.50;1.00;;;;;;5050526;28;20191;-52
2023/01/12 07:57:12;;;;;;;5.23;1.60;;;10.70;1.00;;;;;;5049562;28;20194;-55
2023/01/12 07:59:38;;;;;;;2.97;1.30;;;10.90;1.00;;;;;;5050572;28;20178;-54
2023/01/12 08:02:04;;;;;;;2.00;1.13;;;11.10;1.00;;;;;;5050142;28;20668;-55
2023/01/12 08:04:30;;;;;;;3.90;1.90;;;11.00;1.00;;;;;;5050220;28;20550;-53
2023/01/12 08:06:56;;;;;;;3.37;1.30;;;11.10;1.00;;;;;;5048306;28;20990;-53
2023/01/12 08:09:21;;;;;;;4.80;1.73;;;11.20;1.00;;;;;;5066969;28;20682;-53
2023/01/12 08:11:47;;;;;;;5.40;1.50;;;11.20;1.00;;;;;;5064929;28;20183;-54
2023/01/12 08:14:24;;;;;;;6.00;1.60;;;11.20;1.00;;;;;;5049764;28;20194;-54
2023/01/12 08:16:53;;;;;;;2.30;1.10;;;11.20;1.00;;;;;;5049290;28;20189;-53
2023/01/12 08:19:25;;;;;;;2.40;1.43;;;11.10;1.00;;;;;;5047111;28;21100;-54
2023/01/12 08:21:58;;;;;;;4.03;1.70;;;11.10;1.00;;;;;;5048539;28;20429;-53
2023/01/12 08:24:29;;;;;;;4.60;1.90;;;11.20;1.00;;;;;;5045934;28;20477;-55
2023/01/12 08:26:58;;;;;;;2.40;1.20;;;11.10;1.00;;;;;;5048752;28;21010;-55
2023/01/12 08:29:30;;;;;;;2.80;1.03;;;11.10;1.00;;;;;;5050021;28;20967;-54
2023/01/12 08:32:03;;;;;;;5.23;1.60;;;11.20;1.00;;;;;;5049047;28;20443;-52
2023/01/12 08:34:29;;;;;;;4.53;1.77;;;11.40;1.00;;;;;;5048863;28;20586;-56
2023/01/12 08:36:57;;;;;;;4.27;1.50;;;11.20;1.00;;;;;;5049137;28;20419;-53
2023/01/12 08:39:22;;;;;;;4.03;1.40;;;11.30;1.00;;;;;;5049639;28;20427;-54
2023/01/12 08:41:48;;;;;;;5.50;1.90;;;11.40;1.00;;;;;;5053585;28;20441;-55
2023/01/12 08:44:14;;;;;;;4.70;1.23;;;11.40;1.00;;;;;;5048898;28;20241;-54
2023/01/12 08:46:51;;;;;;;4.47;1.60;;;11.70;1.00;;;;;;5048513;28;20196;-54
2023/01/12 08:49:20;;;;;;;2.33;1.07;;;11.60;1.00;;;;;;5049374;28;20230;-52
2023/01/12 08:51:46;;;;;;;6.90;1.17;;;11.70;1.00;;;;;;5049573;28;20437;-55
2023/01/12 08:54:15;;;;;;;6.10;1.50;;;11.70;1.00;;;;;;5049658;28;20528;-55
2023/01/12 08:56:41;;;;;;;7.67;1.77;;;11.60;1.00;;;;;;5049786;28;20445;-56
2023/01/12 08:59:07;;;;;;;9.03;2.13;;;11.70;1.00;;;;;;5049326;28;21013;-52
2023/01/12 09:01:33;;;;;;;2.80;1.20;;;11.90;1.00;;;;;;5058540;28;20459;-54
2023/01/12 09:03:59;;;;;;;5.40;1.60;;;11.90;1.00;;;;;;5069119;28;20293;-54
2023/01/12 09:06:28;;;;;;;3.60;1.20;;;11.90;1.00;;;;;;5069474;28;20428;-54
2023/01/12 09:08:59;;;;;;;3.03;1.00;;;11.80;1.00;;;;;;5068809;28;20448;-54
2023/01/12 09:11:27;;;;;;;3.13;1.30;;;12.00;1.00;;;;;;5069079;28;20438;-54
2023/01/12 09:13:54;;;;;;;5.13;1.47;;;12.00;1.00;;;;;;5052746;28;20418;-55
2023/01/12 09:16:21;;;;;;;4.43;1.10;;;12.00;1.00;;;;;;5048707;28;20527;-57
2023/01/12 09:18:46;;;;;;;4.77;1.67;;;12.00;1.00;;;;;;5049123;28;20449;-53
2023/01/12 09:21:14;;;;;;;1.90;1.10;;;12.10;1.00;;;;;;5066431;28;20944;-54
2023/01/12 09:23:41;;;;;;;3.00;1.47;;;12.20;1.00;;;;;;5068962;28;20222;-54
2023/01/12 09:26:12;;;;;;;3.83;1.60;;;12.10;1.00;;;;;;5054455;28;20445;-54
2023/01/12 09:28:37;;;;;;;2.73;1.50;;;12.00;1.00;;;;;;5052023;28;20439;-56
2023/01/12 09:31:06;;;;;;;4.20;1.40;;;12.10;1.00;;;;;;5047948;28;20468;-54
2023/01/12 09:33:33;;;;;;;5.77;1.40;;;12.00;1.00;;;;;;5049125;28;20198;-54
2023/01/12 09:36:07;;;;;;;2.83;1.13;;;12.10;1.00;;;;;;5047573;28;20953;-55
2023/01/12 09:38:37;;;;;;;4.43;1.60;;;12.20;1.00;;;;;;5048737;28;20415;-55
2023/01/12 09:47:40;;;;;;;5.60;1.80;;;12.00;1.00;;;;;;5061371;28;20443;-54
2023/01/12 09:50:19;;;;;;;1.60;1.13;;;12.00;1.00;;;;;;5061290;28;20451;-54
2023/01/12 09:53:15;;;;;;;2.27;1.30;;;12.00;1.00;;;;;;5047182;28;20559;-54
2023/01/12 09:55:45;;;;;;;3.20;1.07;;;12.00;1.00;;;;;;5048246;28;20430;-54
2023/01/12 09:58:48;;;;;;;3.80;1.33;;;12.00;1.00;;;;;;5049025;28;20452;-55
2023/01/12 10:01:15;;;;;;;2.50;1.63;;;12.00;1.00;;;;;;5054169;28;20457;-53
2023/01/12 10:03:42;;;;;;;5.60;1.80;;;12.10;1.00;;;;;;5064262;28;20820;-53
2023/01/12 10:06:16;;;;;;;2.80;1.00;;;12.10;1.00;;;;;;5049883;28;20549;-56
2023/01/12 10:08:49;;;;;;;2.60;1.00;;;12.10;1.00;;;;;;5048679;28;20440;-53
2023/01/12 10:11:27;;;;;;;4.47;1.30;;;12.10;1.00;;;;;;5049228;28;20430;-54
2023/01/12 10:14:00;;;;;;;2.10;0.93;;;12.20;1.00;;;;;;5052859;28;20440;-53
2023/01/12 10:16:59;;;;;;;2.90;1.03;;;12.10;1.00;;;;;;5055715;28;20825;-56
2023/01/12 10:19:40;;;;;;;3.07;1.00;;;12.20;1.00;;;;;;5054575;28;20422;-54
2023/01/12 10:22:38;;;;;;;1.87;0.80;;;12.30;1.00;;;;;;5052691;28;20484;-54
2023/01/12 10:25:29;;;;;;;4.87;1.27;;;12.20;1.00;;;;;;5051589;28;20943;-55
2023/01/12 10:27:57;;;;;;;5.77;1.80;;;12.20;1.00;;;;;;5052327;28;20433;-54
2023/01/12 10:30:35;;;;;;;4.23;1.37;;;12.20;1.00;;;;;;5056195;28;20464;-56
2023/01/12 10:33:16;;;;;;;4.40;1.37;;;12.20;1.00;;;;;;5051810;28;20451;-56
2023/01/12 10:35:57;;;;;;;2.47;0.87;;;12.20;1.00;;;;;;5052435;28;20475;-53
2023/01/12 10:38:45;;;;;;;4.13;1.00;;;12.20;1.00;;;;;;5052371;28;20420;-57
2023/01/12 10:41:13;;;;;;;1.80;1.03;;;12.20;1.00;;;;;;5045403;28;20420;-53
2023/01/12 10:43:41;;;;;;;1.73;1.00;;;12.20;1.00;;;;;;5058762;28;20478;-55
2023/01/12 10:46:18;;;;;;;2.03;0.80;;;12.20;1.00;;;;;;5051823;28;20665;-56
2023/01/12 10:48:46;;;;;;;1.63;1.00;;;12.20;1.00;;;;;;5051939;28;20544;-52
2023/01/12 10:51:23;;;;;;;6.40;1.60;;;12.20;1.00;;;;;;5065096;28;20416;-54
2023/01/12 10:54:21;;;;;;;3.83;1.23;;;12.20;1.00;;;;;;5071630;28;20432;-53
2023/01/12 10:57:03;;;;;;;4.13;1.43;;;12.20;1.00;;;;;;5047326;28;20515;-53
2023/01/12 10:59:38;;;;;;;5.37;1.13;;;12.10;1.00;;;;;;5058059;28;20909;-53
2023/01/12 11:02:07;;;;;;;3.83;1.70;;;12.20;1.00;;;;;;5051540;28;20864;-55
2023/01/12 11:04:41;;;;;;;2.50;1.30;;;12.30;1.00;;;;;;5051424;28;20539;-54
2023/01/12 11:07:20;;;;;;;2.97;1.07;;;12.30;1.00;;;;;;5050831;28;20784;-55
2023/01/12 11:09:47;;;;;;;3.03;1.33;;;12.30;1.00;;;;;;5050898;28;20428;-55
2023/01/12 11:12:25;;;;;;;2.43;0.80;;;12.30;1.00;;;;;;5051355;28;20433;-55
2023/01/12 11:14:56;;;;;;;4.90;1.70;;;12.20;1.00;;;;;;5051438;28;20447;-54
2023/01/12 11:18:12;;;;;;;7.10;1.67;;;12.20;1.00;;;;;;5050148;28;20428;-55
2023/01/12 11:20:48;;;;;;;1.70;0.90;;;12.20;1.00;;;;;;5047769;28;20437;-55
2023/01/12 11:23:36;;;;;;;3.30;1.27;;;12.20;1.00;;;;;;5051464;28;20759;-54
2023/01/12 11:26:12;;;;;;;4.00;1.13;;;12.10;1.00;;;;;;5050840;28;20431;-53
2023/01/12 11:28:45;;;;;;;3.93;1.30;;;12.10;1.00;;;;;;5050925;28;20434;-58
2023/01/12 11:31:20;;;;;;;1.53;1.43;;;12.10;1.00;;;;;;5051103;28;20446;-56
2023/01/12 11:33:51;;;;;;;3.23;2.00;;;12.10;1.00;;;;;;5051305;28;20501;-54
2023/01/12 11:36:27;;;;;;;3.07;1.10;;;12.10;1.00;;;;;;5050878;28;20485;-55
2023/01/12 11:39:04;;;;;;;2.83;1.17;;;12.00;1.00;;;;;;5049996;28;20479;-55
2023/01/12 11:43:47;;;;;;;1.83;0.93;;;12.00;1.00;;;;;;5049395;28;20435;-55
2023/01/12 11:44:39;;;;;;;3.77;1.10;;;12.10;1.00;;;;;;5050442;28;20434;-53
2023/01/12 11:47:13;;;;;;;3.03;1.57;;;12.10;1.00;;;;;;5049787;28;20416;-55
2023/01/12 11:49:50;;;;;;;3.20;1.17;;;12.10;1.00;;;;;;5068366;28;20464;-55
2023/01/12 11:52:16;;;;;;;1.10;0.90;;;12.10;1.00;;;;;;5070629;28;20490;-54
2023/01/12 11:54:42;;;;;;;4.00;1.20;;;12.10;1.00;;;;;;5052902;28;20484;-55
2023/01/12 11:57:35;;;;;;;3.30;1.23;;;12.00;1.00;;;;;;5050654;28;20501;-55
2023/01/12 12:00:19;;;;;;;3.80;0.77;;;11.80;1.00;;;;;;5050767;28;20434;-54
2023/01/12 12:03:24;;;;;;;1.70;0.60;;;11.80;1.00;;;;;;5050627;28;20483;-54
2023/01/12 12:06:13;;;;;;;3.03;1.43;;;11.80;1.00;;;;;;5050493;28;20437;-56
2023/01/12 12:08:51;;;;;;;1.97;0.90;;;11.90;1.00;;;;;;5030646;28;20448;-54
2023/01/12 12:11:34;;;;;;;2.17;0.77;;;11.90;1.00;;;;;;5061559;28;20424;-54
2023/01/12 12:14:27;;;;;;;1.43;0.57;;;11.90;1.00;;;;;;5070147;28;20513;-55
2023/01/12 12:17:03;;;;;;;1.77;1.00;;;11.90;1.00;;;;;;5070435;28;20778;-54
2023/01/12 12:19:50;;;;;;;3.47;1.70;;;11.90;1.00;;;;;;5051767;28;20443;-56
2023/01/12 12:22:47;;;;;;;2.00;0.80;;;11.90;1.00;;;;;;5049913;28;20502;-55
2023/01/12 12:25:19;;;;;;;1.93;1.03;;;11.90;1.00;;;;;;5050089;28;20414;-54
2023/01/12 12:28:35;;;;;;;1.40;0.80;;;11.90;1.00;;;;;;5049978;28;20433;-57
2023/01/12 12:31:12;;;;;;;1.57;0.67;;;11.90;1.00;;;;;;5046870;28;20443;-56
2023/01/12 12:34:19;;;;;;;0.87;0.83;;;11.80;1.00;;;;;;5061334;28;20466;-54
2023/01/12 12:37:24;;;;;;;1.27;0.60;;;11.70;1.00;;;;;;5049263;28;20535;-56
2023/01/12 12:40:05;;;;;;;3.00;1.23;;;11.60;1.00;;;;;;5049693;28;20430;-52
2023/01/12 12:45:40;;;;;;;8.10;3.97;;;11.60;1.00;;;;;;5048871;28;20442;-52
2023/01/12 12:48:13;;;;;;;1.57;0.90;;;11.50;1.00;;;;;;5048802;28;20440;-54
2023/01/12 12:50:50;;;;;;;1.87;0.87;;;11.40;1.00;;;;;;5047646;28;20551;-55
2023/01/12 12:53:18;;;;;;;1.73;0.90;;;11.50;1.00;;;;;;5047382;28;20845;-57
2023/01/12 12:55:45;;;;;;;1.47;1.00;;;11.40;1.00;;;;;;5049582;28;20972;-54
2023/01/12 12:58:20;;;;;;;2.07;1.07;;;11.40;1.00;;;;;;5047481;28;20440;-56
2023/01/12 13:00:46;;;;;;;3.00;0.80;;;11.30;1.00;;;;;;5047733;28;20444;-54
2023/01/12 13:03:40;;;;;;;2.63;1.13;;;11.40;1.00;;;;;;5054983;28;20472;-55
2023/01/12 13:06:09;;;;;;;1.60;1.00;;;11.40;1.00;;;;;;5060199;28;20930;-54
2023/01/12 13:08:35;;;;;;;3.47;1.20;;;11.40;1.00;;;;;;5049314;28;20814;-55
2023/01/12 13:11:01;;;;;;;1.67;1.00;;;11.30;1.00;;;;;;5049453;28;20433;-54
2023/01/12 13:13:37;;;;;;;2.50;0.90;;;11.40;1.00;;;;;;5047680;28;20440;-55
2023/01/12 13:16:18;;;;;;;1.53;0.77;;;11.40;1.00;;;;;;5049557;28;20182;-54
2023/01/12 13:18:49;;;;;;;0.83;0.60;;;11.40;1.00;;;;;;5049245;28;20562;-54
2023/01/12 13:21:54;;;;;;;4.10;1.00;;;11.40;1.00;;;;;;5057217;28;20769;-55
2023/01/12 13:24:49;;;;;;;2.37;0.90;;;11.40;1.00;;;;;;5069058;28;20467;-54
2023/01/12 13:27:46;;;;;;;1.70;0.70;;;11.40;1.00;;;;;;5055718;28;20444;-55
2023/01/12 13:30:25;;;;;;;1.70;0.70;;;11.40;1.00;;;;;;5048882;28;20866;-54
2023/01/12 13:32:57;;;;;;;1.27;0.63;;;11.50;1.00;;;;;;5048701;28;20452;-54
2023/01/12 13:35:48;;;;;;;1.80;0.73;;;11.40;1.00;;;;;;5049220;28;20786;-58
2023/01/12 13:38:32;;;;;;;3.90;1.00;;;11.30;1.00;;;;;;5031960;28;20457;-55
2023/01/12 13:44:28;;;;;;;1.90;1.17;;;11.30;1.00;;;;;;5046742;28;20469;-56
2023/01/12 13:47:09;;;;;;;1.00;0.70;;;11.30;1.00;;;;;;5061292;28;20861;-55
2023/01/12 13:49:46;;;;;;;1.20;0.77;;;11.20;1.00;;;;;;5049734;28;20471;-55
2023/01/12 13:52:19;;;;;;;0.70;0.63;;;11.20;1.00;;;;;;5051372;28;20456;-54
2023/01/12 13:54:49;;;;;;;1.40;0.80;;;11.30;1.00;;;;;;5052798;28;20454;-56
2023/01/12 13:57:22;;;;;;;2.90;1.50;;;11.20;1.00;;;;;;5053006;28;20591;-53
2023/01/12 14:00:08;;;;;;;1.87;0.90;;;11.20;1.00;;;;;;5052372;28;21075;-53
2023/01/12 14:02:35;;;;;;;2.20;0.83;;;11.20;1.00;;;;;;5052865;28;20521;-55
2023/01/12 14:05:12;;;;;;;1.50;0.77;;;11.30;1.00;;;;;;5052197;28;20445;-53